sensor_id;sensor_type;location;lat;lon;timestamp;P1;durP1;ratioP1;P2;durP2;ratioP2
11287;SDS011;5700;50.996;7.044;2024-03-23T00:54:34;15.35;;;5.38;;
11287;SDS011;5700;50.996;7.044;2024-03-23T00:57:34;16.25;;;5.60;;
11287;SDS011;5700;50.996;7.044;2024-03-23T01:00:36;16.25;;;5.57;;
11287;SDS011;5700;50.996;7.044;2024-03-23T01:03:36;17.33;;;6.43;;
11287;SDS011;5700;50.996;7.044;2024-03-23T01:06:38;16.30;;;5.80;;
11287;SDS011;5700;50.996;7.044;2024-03-23T01:09:40;18.02;;;6.90;;
11287;SDS011;5700;50.996;7.044;2024-03-23T01:12:41;22.75;;;6.40;;
11287;SDS011;5700;50.996;7.044;2024-03-23T01:15:47;18.17;;;6.05;;
11287;SDS011;5700;50.996;7.044;2024-03-23T01:18:48;15.68;;;5.97;;
11287;SDS011;5700;50.996;7.044;2024-03-23T01:21:49;21.17;;;6.35;;
11287;SDS011;5700;50.996;7.044;2024-03-23T01:24:51;16.35;;;5.50;;
11287;SDS011;5700;50.996;7.044;2024-03-23T01:27:53;11.90;;;4.13;;
11287;SDS011;5700;50.996;7.044;2024-03-23T01:30:53;10.73;;;3.53;;
11287;SDS011;5700;50.996;7.044;2024-03-23T01:33:54;9.38;;;2.65;;
11287;SDS011;5700;50.996;7.044;2024-03-23T01:36:55;7.20;;;2.38;;
11287;SDS011;5700;50.996;7.044;2024-03-23T01:39:58;8.27;;;2.28;;
11287;SDS011;5700;50.996;7.044;2024-03-23T01:43:02;9.18;;;2.17;;
11287;SDS011;5700;50.996;7.044;2024-03-23T01:46:04;5.57;;;1.73;;
11287;SDS011;5700;50.996;7.044;2024-03-23T01:49:05;6.10;;;1.80;;
11287;SDS011;5700;50.996;7.044;2024-03-23T01:52:07;5.05;;;1.90;;
11287;SDS011;5700;50.996;7.044;2024-03-23T01:55:09;7.45;;;2.63;;
11287;SDS011;5700;50.996;7.044;2024-03-23T01:58:10;6.45;;;1.80;;
11287;SDS011;5700;50.996;7.044;2024-03-23T02:01:11;10.88;;;2.80;;
11287;SDS011;5700;50.996;7.044;2024-03-23T02:04:12;4.65;;;1.83;;
11287;SDS011;5700;50.996;7.044;2024-03-23T02:07:14;3.88;;;1.55;;
11287;SDS011;5700;50.996;7.044;2024-03-23T02:10:15;5.78;;;2.60;;
11287;SDS011;5700;50.996;7.044;2024-03-23T02:13:17;8.45;;;2.60;;
11287;SDS011;5700;50.996;7.044;2024-03-23T02:16:18;16.25;;;2.80;;
11287;SDS011;5700;50.996;7.044;2024-03-23T02:19:19;14.85;;;2.78;;
11287;SDS011;5700;50.996;7.044;2024-03-23T02:22:20;8.65;;;2.50;;
11287;SDS011;5700;50.996;7.044;2024-03-23T02:25:23;10.52;;;2.63;;
11287;SDS011;5700;50.996;7.044;2024-03-23T02:28:23;4.47;;;2.13;;
11287;SDS011;5700;50.996;7.044;2024-03-23T02:31:25;7.88;;;2.78;;
11287;SDS011;5700;50.996;7.044;2024-03-23T02:34:26;8.60;;;2.22;;
11287;SDS011;5700;50.996;7.044;2024-03-23T02:37:27;11.90;;;2.60;;
11287;SDS011;5700;50.996;7.044;2024-03-23T02:40:29;6.72;;;2.38;;
11287;SDS011;5700;50.996;7.044;2024-03-23T02:43:30;9.38;;;2.17;;
11287;SDS011;5700;50.996;7.044;2024-03-23T02:46:31;7.10;;;2.30;;
11287;SDS011;5700;50.996;7.044;2024-03-23T02:49:32;6.20;;;1.70;;
11287;SDS011;5700;50.996;7.044;2024-03-23T02:52:33;8.13;;;2.13;;
11287;SDS011;5700;50.996;7.044;2024-03-23T02:55:35;8.63;;;2.40;;
11287;SDS011;5700;50.996;7.044;2024-03-23T02:58:36;8.13;;;2.55;;
11287;SDS011;5700;50.996;7.044;2024-03-23T03:01:37;7.65;;;2.67;;
11287;SDS011;5700;50.996;7.044;2024-03-23T03:04:38;11.70;;;2.92;;
11287;SDS011;5700;50.996;7.044;2024-03-23T03:07:39;8.57;;;2.75;;
11287;SDS011;5700;50.996;7.044;2024-03-23T03:10:42;9.32;;;2.60;;
11287;SDS011;5700;50.996;7.044;2024-03-23T03:13:42;10.50;;;3.00;;
11287;SDS011;5700;50.996;7.044;2024-03-23T03:16:44;9.55;;;3.08;;
11287;SDS011;5700;50.996;7.044;2024-03-23T03:19:44;9.60;;;3.03;;
11287;SDS011;5700;50.996;7.044;2024-03-23T03:22:48;9.45;;;3.25;;
11287;SDS011;5700;50.996;7.044;2024-03-23T03:25:51;14.02;;;3.67;;
11287;SDS011;5700;50.996;7.044;2024-03-23T03:28:51;15.13;;;3.58;;
11287;SDS011;5700;50.996;7.044;2024-03-23T03:31:53;8.80;;;2.92;;
11287;SDS011;5700;50.996;7.044;2024-03-23T03:34:53;8.75;;;2.90;;
11287;SDS011;5700;50.996;7.044;2024-03-23T03:37:55;8.63;;;2.75;;
11287;SDS011;5700;50.996;7.044;2024-03-23T03:40:57;6.85;;;2.40;;
11287;SDS011;5700;50.996;7.044;2024-03-23T03:43:59;9.65;;;2.80;;
11287;SDS011;5700;50.996;7.044;2024-03-23T03:47:01;4.35;;;2.28;;
11287;SDS011;5700;50.996;7.044;2024-03-23T03:50:02;13.98;;;2.55;;
11287;SDS011;5700;50.996;7.044;2024-03-23T03:53:04;5.97;;;2.70;;
11287;SDS011;5700;50.996;7.044;2024-03-23T03:56:05;6.60;;;2.42;;
11287;SDS011;5700;50.996;7.044;2024-03-23T03:59:07;6.85;;;2.13;;
11287;SDS011;5700;50.996;7.044;2024-03-23T04:02:09;8.18;;;2.33;;
11287;SDS011;5700;50.996;7.044;2024-03-23T04:05:09;3.75;;;1.80;;
11287;SDS011;5700;50.996;7.044;2024-03-23T04:08:11;11.75;;;1.88;;
11287;SDS011;5700;50.996;7.044;2024-03-23T04:11:13;4.80;;;1.58;;
11287;SDS011;5700;50.996;7.044;2024-03-23T04:14:14;7.07;;;1.85;;
11287;SDS011;5700;50.996;7.044;2024-03-23T04:17:15;9.75;;;1.75;;
11287;SDS011;5700;50.996;7.044;2024-03-23T04:20:16;10.25;;;2.50;;
11287;SDS011;5700;50.996;7.044;2024-03-23T04:23:17;8.43;;;2.28;;
11287;SDS011;5700;50.996;7.044;2024-03-23T04:26:20;11.48;;;3.67;;
11287;SDS011;5700;50.996;7.044;2024-03-23T04:29:21;8.75;;;3.45;;
11287;SDS011;5700;50.996;7.044;2024-03-23T04:32:22;9.85;;;3.05;;
11287;SDS011;5700;50.996;7.044;2024-03-23T04:35:24;13.40;;;3.30;;
11287;SDS011;5700;50.996;7.044;2024-03-23T04:38:25;12.68;;;3.75;;
11287;SDS011;5700;50.996;7.044;2024-03-23T04:41:29;11.52;;;3.80;;
11287;SDS011;5700;50.996;7.044;2024-03-23T04:44:31;11.70;;;3.03;;
11287;SDS011;5700;50.996;7.044;2024-03-23T04:47:33;12.80;;;2.85;;
11287;SDS011;5700;50.996;7.044;2024-03-23T04:50:35;7.07;;;2.10;;
11287;SDS011;5700;50.996;7.044;2024-03-23T04:53:36;11.60;;;2.13;;
11287;SDS011;5700;50.996;7.044;2024-03-23T04:56:39;5.90;;;1.55;;
11287;SDS011;5700;50.996;7.044;2024-03-23T04:59:41;9.65;;;2.50;;
11287;SDS011;5700;50.996;7.044;2024-03-23T05:02:41;12.32;;;2.47;;
11287;SDS011;5700;50.996;7.044;2024-03-23T05:05:43;11.07;;;2.00;;
11287;SDS011;5700;50.996;7.044;2024-03-23T05:08:44;6.13;;;2.40;;
11287;SDS011;5700;50.996;7.044;2024-03-23T05:11:47;8.15;;;1.88;;
11287;SDS011;5700;50.996;7.044;2024-03-23T05:14:48;4.55;;;1.83;;
11287;SDS011;5700;50.996;7.044;2024-03-23T05:17:50;7.22;;;1.75;;
11287;SDS011;5700;50.996;7.044;2024-03-23T05:20:55;10.25;;;2.15;;
11287;SDS011;5700;50.996;7.044;2024-03-23T05:23:57;9.95;;;1.88;;
11287;SDS011;5700;50.996;7.044;2024-03-23T05:27:00;9.02;;;1.50;;
11287;SDS011;5700;50.996;7.044;2024-03-23T05:30:00;5.75;;;1.52;;
11287;SDS011;5700;50.996;7.044;2024-03-23T05:33:02;5.90;;;1.83;;
11287;SDS011;5700;50.996;7.044;2024-03-23T05:36:04;9.02;;;2.10;;
11287;SDS011;5700;50.996;7.044;2024-03-23T05:39:05;7.68;;;2.33;;
11287;SDS011;5700;50.996;7.044;2024-03-23T05:42:07;11.93;;;2.17;;
11287;SDS011;5700;50.996;7.044;2024-03-23T05:45:08;9.63;;;1.65;;
11287;SDS011;5700;50.996;7.044;2024-03-23T05:48:11;8.98;;;2.17;;
11287;SDS011;5700;50.996;7.044;2024-03-23T05:51:12;6.82;;;1.60;;
11287;SDS011;5700;50.996;7.044;2024-03-23T05:54:13;6.70;;;1.67;;
11287;SDS011;5700;50.996;7.044;2024-03-23T05:57:16;6.50;;;1.80;;
11287;SDS011;5700;50.996;7.044;2024-03-23T06:00:16;11.27;;;1.77;;
11287;SDS011;5700;50.996;7.044;2024-03-23T06:03:18;10.27;;;2.72;;
11287;SDS011;5700;50.996;7.044;2024-03-23T06:06:20;5.32;;;1.70;;
11287;SDS011;5700;50.996;7.044;2024-03-23T06:09:21;8.30;;;1.90;;
11287;SDS011;5700;50.996;7.044;2024-03-23T06:12:24;8.95;;;2.30;;
11287;SDS011;5700;50.996;7.044;2024-03-23T06:15:26;9.43;;;2.22;;
11287;SDS011;5700;50.996;7.044;2024-03-23T06:18:27;8.23;;;2.85;;
11287;SDS011;5700;50.996;7.044;2024-03-23T06:21:28;12.27;;;2.10;;
11287;SDS011;5700;50.996;7.044;2024-03-23T06:24:29;8.70;;;1.90;;
11287;SDS011;5700;50.996;7.044;2024-03-23T06:27:31;9.38;;;2.70;;
11287;SDS011;5700;50.996;7.044;2024-03-23T06:30:32;10.18;;;2.50;;
11287;SDS011;5700;50.996;7.044;2024-03-23T06:33:34;8.45;;;1.65;;
11287;SDS011;5700;50.996;7.044;2024-03-23T06:36:35;7.00;;;2.08;;
11287;SDS011;5700;50.996;7.044;2024-03-23T06:39:38;5.97;;;2.13;;
11287;SDS011;5700;50.996;7.044;2024-03-23T06:42:41;6.60;;;1.95;;
11287;SDS011;5700;50.996;7.044;2024-03-23T06:45:42;5.47;;;2.28;;
11287;SDS011;5700;50.996;7.044;2024-03-23T06:48:44;10.18;;;2.17;;
11287;SDS011;5700;50.996;7.044;2024-03-23T06:51:45;8.32;;;2.10;;
11287;SDS011;5700;50.996;7.044;2024-03-23T06:54:46;8.57;;;1.88;;
11287;SDS011;5700;50.996;7.044;2024-03-23T06:57:48;8.85;;;2.42;;
11287;SDS011;5700;50.996;7.044;2024-03-23T07:00:50;9.05;;;2.30;;
11287;SDS011;5700;50.996;7.044;2024-03-23T07:03:50;12.02;;;2.53;;
11287;SDS011;5700;50.996;7.044;2024-03-23T07:06:52;9.95;;;2.78;;
11287;SDS011;5700;50.996;7.044;2024-03-23T07:09:53;17.73;;;2.83;;
11287;SDS011;5700;50.996;7.044;2024-03-23T07:12:56;12.15;;;3.33;;
11287;SDS011;5700;50.996;7.044;2024-03-23T07:15:56;5.85;;;2.58;;
11287;SDS011;5700;50.996;7.044;2024-03-23T07:18:59;13.02;;;3.13;;
11287;SDS011;5700;50.996;7.044;2024-03-23T07:22:00;15.23;;;4.15;;
11287;SDS011;5700;50.996;7.044;2024-03-23T07:25:02;16.30;;;3.20;;
11287;SDS011;5700;50.996;7.044;2024-03-23T07:28:04;9.18;;;3.05;;
11287;SDS011;5700;50.996;7.044;2024-03-23T07:31:06;13.90;;;3.30;;
11287;SDS011;5700;50.996;7.044;2024-03-23T07:34:08;16.42;;;4.63;;
11287;SDS011;5700;50.996;7.044;2024-03-23T07:37:10;11.38;;;3.17;;
11287;SDS011;5700;50.996;7.044;2024-03-23T07:40:10;13.45;;;3.38;;
11287;SDS011;5700;50.996;7.044;2024-03-23T07:43:14;12.20;;;3.80;;
11287;SDS011;5700;50.996;7.044;2024-03-23T07:46:15;15.75;;;5.07;;
11287;SDS011;5700;50.996;7.044;2024-03-23T07:49:18;14.63;;;4.43;;
11287;SDS011;5700;50.996;7.044;2024-03-23T07:52:20;14.45;;;5.13;;
11287;SDS011;5700;50.996;7.044;2024-03-23T07:55:21;15.63;;;4.53;;
11287;SDS011;5700;50.996;7.044;2024-03-23T07:58:24;18.05;;;4.72;;
11287;SDS011;5700;50.996;7.044;2024-03-23T08:01:24;17.55;;;5.60;;
11287;SDS011;5700;50.996;7.044;2024-03-23T08:04:26;17.33;;;5.70;;
11287;SDS011;5700;50.996;7.044;2024-03-23T08:07:27;13.65;;;6.20;;
11287;SDS011;5700;50.996;7.044;2024-03-23T08:10:28;12.85;;;5.93;;
11287;SDS011;5700;50.996;7.044;2024-03-23T08:13:30;12.98;;;5.50;;
11287;SDS011;5700;50.996;7.044;2024-03-23T08:16:32;17.02;;;5.72;;
11287;SDS011;5700;50.996;7.044;2024-03-23T08:19:34;18.45;;;5.20;;
11287;SDS011;5700;50.996;7.044;2024-03-23T08:22:35;11.45;;;4.82;;
11287;SDS011;5700;50.996;7.044;2024-03-23T08:25:36;15.77;;;4.75;;
11287;SDS011;5700;50.996;7.044;2024-03-23T08:28:39;7.47;;;3.38;;
11287;SDS011;5700;50.996;7.044;2024-03-23T08:31:39;10.27;;;3.05;;
11287;SDS011;5700;50.996;7.044;2024-03-23T08:34:40;8.55;;;3.47;;
11287;SDS011;5700;50.996;7.044;2024-03-23T08:37:42;8.18;;;3.60;;
11287;SDS011;5700;50.996;7.044;2024-03-23T08:40:44;12.38;;;3.22;;
11287;SDS011;5700;50.996;7.044;2024-03-23T08:43:46;8.32;;;2.83;;
11287;SDS011;5700;50.996;7.044;2024-03-23T08:46:47;7.45;;;2.85;;
11287;SDS011;5700;50.996;7.044;2024-03-23T08:49:47;4.75;;;1.90;;
11287;SDS011;5700;50.996;7.044;2024-03-23T08:52:50;7.57;;;1.95;;
11287;SDS011;5700;50.996;7.044;2024-03-23T08:55:52;5.13;;;1.88;;
11287;SDS011;5700;50.996;7.044;2024-03-23T08:58:54;4.75;;;1.88;;
11287;SDS011;5700;50.996;7.044;2024-03-23T09:01:56;13.13;;;2.70;;
11287;SDS011;5700;50.996;7.044;2024-03-23T09:04:58;7.78;;;3.13;;
11287;SDS011;5700;50.996;7.044;2024-03-23T09:08:04;10.00;;;2.92;;
11287;SDS011;5700;50.996;7.044;2024-03-23T09:11:06;6.07;;;2.63;;
11287;SDS011;5700;50.996;7.044;2024-03-23T09:14:10;8.40;;;2.67;;
11287;SDS011;5700;50.996;7.044;2024-03-23T09:17:11;9.57;;;2.80;;
11287;SDS011;5700;50.996;7.044;2024-03-23T09:20:13;10.27;;;3.25;;
11287;SDS011;5700;50.996;7.044;2024-03-23T09:23:16;10.00;;;3.30;;
11287;SDS011;5700;50.996;7.044;2024-03-23T09:26:16;8.48;;;2.97;;
11287;SDS011;5700;50.996;7.044;2024-03-23T09:29:20;5.32;;;2.60;;
11287;SDS011;5700;50.996;7.044;2024-03-23T09:32:20;4.47;;;2.20;;
11287;SDS011;5700;50.996;7.044;2024-03-23T09:35:21;9.40;;;2.22;;
11287;SDS011;5700;50.996;7.044;2024-03-23T09:38:22;6.68;;;2.65;;
11287;SDS011;5700;50.996;7.044;2024-03-23T09:41:24;12.30;;;2.00;;
11287;SDS011;5700;50.996;7.044;2024-03-23T09:44:25;6.85;;;2.33;;
11287;SDS011;5700;50.996;7.044;2024-03-23T09:47:29;5.97;;;2.53;;
11287;SDS011;5700;50.996;7.044;2024-03-23T09:50:29;6.63;;;2.05;;
11287;SDS011;5700;50.996;7.044;2024-03-23T09:53:31;8.52;;;2.20;;
11287;SDS011;5700;50.996;7.044;2024-03-23T09:56:32;6.60;;;2.17;;
11287;SDS011;5700;50.996;7.044;2024-03-23T09:59:35;6.28;;;1.70;;
11287;SDS011;5700;50.996;7.044;2024-03-23T10:02:36;7.40;;;1.90;;
11287;SDS011;5700;50.996;7.044;2024-03-23T10:05:38;7.20;;;1.65;;
11287;SDS011;5700;50.996;7.044;2024-03-23T10:08:38;4.38;;;1.90;;
11287;SDS011;5700;50.996;7.044;2024-03-23T10:11:40;7.55;;;1.95;;
11287;SDS011;5700;50.996;7.044;2024-03-23T10:14:42;7.53;;;1.70;;
11287;SDS011;5700;50.996;7.044;2024-03-23T10:17:44;8.88;;;1.70;;
11287;SDS011;5700;50.996;7.044;2024-03-23T10:20:45;7.72;;;2.13;;
11287;SDS011;5700;50.996;7.044;2024-03-23T10:23:51;3.83;;;1.33;;
11287;SDS011;5700;50.996;7.044;2024-03-23T10:26:55;5.25;;;1.25;;
11287;SDS011;5700;50.996;7.044;2024-03-23T10:29:59;3.67;;;1.50;;
11287;SDS011;5700;50.996;7.044;2024-03-23T10:33:09;6.32;;;1.65;;
11287;SDS011;5700;50.996;7.044;2024-03-23T10:36:10;6.45;;;0.95;;
11287;SDS011;5700;50.996;7.044;2024-03-23T10:39:11;5.47;;;1.20;;
11287;SDS011;5700;50.996;7.044;2024-03-23T10:42:13;9.20;;;1.65;;
11287;SDS011;5700;50.996;7.044;2024-03-23T10:45:16;6.78;;;1.33;;
11287;SDS011;5700;50.996;7.044;2024-03-23T10:48:17;3.13;;;1.20;;
11287;SDS011;5700;50.996;7.044;2024-03-23T10:51:18;2.05;;;0.88;;
11287;SDS011;5700;50.996;7.044;2024-03-23T10:54:19;3.30;;;1.15;;
11287;SDS011;5700;50.996;7.044;2024-03-23T10:57:21;7.40;;;1.42;;
11287;SDS011;5700;50.996;7.044;2024-03-23T11:00:27;2.83;;;0.90;;
11287;SDS011;5700;50.996;7.044;2024-03-23T11:03:31;2.28;;;0.80;;
11287;SDS011;5700;50.996;7.044;2024-03-23T11:06:33;2.97;;;0.70;;
11287;SDS011;5700;50.996;7.044;2024-03-23T11:09:38;1.63;;;0.85;;
11287;SDS011;5700;50.996;7.044;2024-03-23T11:12:44;2.25;;;0.88;;
11287;SDS011;5700;50.996;7.044;2024-03-23T11:15:46;4.22;;;1.23;;
11287;SDS011;5700;50.996;7.044;2024-03-23T11:18:48;2.33;;;1.30;;
11287;SDS011;5700;50.996;7.044;2024-03-23T11:21:51;3.55;;;1.02;;
11287;SDS011;5700;50.996;7.044;2024-03-23T11:24:53;2.70;;;0.82;;
11287;SDS011;5700;50.996;7.044;2024-03-23T11:27:54;3.70;;;1.42;;
11287;SDS011;5700;50.996;7.044;2024-03-23T11:30:58;3.95;;;1.52;;
11287;SDS011;5700;50.996;7.044;2024-03-23T11:34:02;0.77;;;0.75;;
11287;SDS011;5700;50.996;7.044;2024-03-23T11:37:04;1.95;;;0.90;;
11287;SDS011;5700;50.996;7.044;2024-03-23T11:43:22;0.98;;;0.60;;
11287;SDS011;5700;50.996;7.044;2024-03-23T11:46:26;1.20;;;0.60;;
11287;SDS011;5700;50.996;7.044;2024-03-23T11:49:28;3.30;;;0.95;;
11287;SDS011;5700;50.996;7.044;2024-03-23T11:52:30;1.48;;;0.70;;
11287;SDS011;5700;50.996;7.044;2024-03-23T11:55:30;4.32;;;1.02;;
11287;SDS011;5700;50.996;7.044;2024-03-23T11:58:40;0.95;;;0.60;;
11287;SDS011;5700;50.996;7.044;2024-03-23T12:01:42;2.88;;;0.95;;
11287;SDS011;5700;50.996;7.044;2024-03-23T12:04:44;3.88;;;1.00;;
11287;SDS011;5700;50.996;7.044;2024-03-23T12:07:44;1.52;;;1.00;;
11287;SDS011;5700;50.996;7.044;2024-03-23T12:10:47;2.17;;;1.00;;
11287;SDS011;5700;50.996;7.044;2024-03-23T12:13:49;4.03;;;1.20;;
11287;SDS011;5700;50.996;7.044;2024-03-23T12:16:53;4.65;;;1.17;;
11287;SDS011;5700;50.996;7.044;2024-03-23T12:19:54;2.40;;;1.13;;
11287;SDS011;5700;50.996;7.044;2024-03-23T12:23:04;2.42;;;1.20;;
11287;SDS011;5700;50.996;7.044;2024-03-23T12:26:05;3.17;;;1.40;;
11287;SDS011;5700;50.996;7.044;2024-03-23T12:29:06;5.80;;;1.52;;
11287;SDS011;5700;50.996;7.044;2024-03-23T12:32:08;2.85;;;0.95;;
11287;SDS011;5700;50.996;7.044;2024-03-23T12:35:10;3.03;;;0.80;;
11287;SDS011;5700;50.996;7.044;2024-03-23T12:38:10;5.13;;;1.27;;
11287;SDS011;5700;50.996;7.044;2024-03-23T12:41:12;1.52;;;1.05;;
11287;SDS011;5700;50.996;7.044;2024-03-23T12:44:12;1.88;;;0.80;;
11287;SDS011;5700;50.996;7.044;2024-03-23T12:47:16;2.15;;;0.88;;
11287;SDS011;5700;50.996;7.044;2024-03-23T12:50:16;4.13;;;0.70;;
11287;SDS011;5700;50.996;7.044;2024-03-23T12:53:18;1.85;;;0.60;;
11287;SDS011;5700;50.996;7.044;2024-03-23T12:56:19;1.70;;;0.70;;
11287;SDS011;5700;50.996;7.044;2024-03-23T12:59:20;4.13;;;0.82;;
11287;SDS011;5700;50.996;7.044;2024-03-23T13:02:22;3.22;;;0.75;;
11287;SDS011;5700;50.996;7.044;2024-03-23T13:05:23;4.63;;;0.90;;
11287;SDS011;5700;50.996;7.044;2024-03-23T13:08:25;6.47;;;0.93;;
11287;SDS011;5700;50.996;7.044;2024-03-23T13:11:25;2.55;;;1.15;;
11287;SDS011;5700;50.996;7.044;2024-03-23T13:14:26;1.88;;;0.70;;
11287;SDS011;5700;50.996;7.044;2024-03-23T13:17:28;1.70;;;0.75;;
11287;SDS011;5700;50.996;7.044;2024-03-23T13:20:29;1.35;;;0.93;;
11287;SDS011;5700;50.996;7.044;2024-03-23T13:23:30;2.33;;;0.80;;
11287;SDS011;5700;50.996;7.044;2024-03-23T13:26:34;3.40;;;1.13;;
11287;SDS011;5700;50.996;7.044;2024-03-23T13:29:34;1.83;;;1.15;;
11287;SDS011;5700;50.996;7.044;2024-03-23T13:32:39;2.65;;;1.23;;
11287;SDS011;5700;50.996;7.044;2024-03-23T13:35:40;1.52;;;0.75;;
11287;SDS011;5700;50.996;7.044;2024-03-23T13:38:49;1.40;;;1.00;;
11287;SDS011;5700;50.996;7.044;2024-03-23T13:41:51;2.75;;;0.82;;
11287;SDS011;5700;50.996;7.044;2024-03-23T13:44:51;4.85;;;1.15;;
11287;SDS011;5700;50.996;7.044;2024-03-23T13:47:54;1.40;;;0.93;;
11287;SDS011;5700;50.996;7.044;2024-03-23T13:50:58;4.43;;;1.48;;
11287;SDS011;5700;50.996;7.044;2024-03-23T13:53:59;3.63;;;1.27;;
11287;SDS011;5700;50.996;7.044;2024-03-23T13:57:01;4.57;;;1.45;;
11287;SDS011;5700;50.996;7.044;2024-03-23T14:00:02;3.50;;;1.30;;
11287;SDS011;5700;50.996;7.044;2024-03-23T14:03:06;6.57;;;1.40;;
11287;SDS011;5700;50.996;7.044;2024-03-23T14:06:07;3.17;;;1.00;;
11287;SDS011;5700;50.996;7.044;2024-03-23T14:09:08;2.70;;;1.17;;
11287;SDS011;5700;50.996;7.044;2024-03-23T14:12:09;3.50;;;1.00;;
11287;SDS011;5700;50.996;7.044;2024-03-23T14:15:10;2.17;;;0.80;;
11287;SDS011;5700;50.996;7.044;2024-03-23T14:18:12;1.35;;;0.70;;
11287;SDS011;5700;50.996;7.044;2024-03-23T14:21:14;1.90;;;0.60;;
11287;SDS011;5700;50.996;7.044;2024-03-23T14:24:15;4.15;;;0.75;;
11287;SDS011;5700;50.996;7.044;2024-03-23T14:27:16;3.92;;;0.88;;
11287;SDS011;5700;50.996;7.044;2024-03-23T14:30:18;1.67;;;0.70;;
11287;SDS011;5700;50.996;7.044;2024-03-23T14:33:19;1.48;;;0.85;;
11287;SDS011;5700;50.996;7.044;2024-03-23T14:36:21;3.38;;;0.90;;
11287;SDS011;5700;50.996;7.044;2024-03-23T14:39:22;2.17;;;0.93;;
11287;SDS011;5700;50.996;7.044;2024-03-23T14:42:24;2.22;;;0.70;;
11287;SDS011;5700;50.996;7.044;2024-03-23T14:45:25;4.85;;;1.00;;
11287;SDS011;5700;50.996;7.044;2024-03-23T14:48:27;4.88;;;1.27;;
11287;SDS011;5700;50.996;7.044;2024-03-23T14:51:29;4.05;;;1.33;;
11287;SDS011;5700;50.996;7.044;2024-03-23T14:54:30;1.73;;;0.90;;
11287;SDS011;5700;50.996;7.044;2024-03-23T14:57:30;3.63;;;1.15;;
11287;SDS011;5700;50.996;7.044;2024-03-23T15:00:32;2.03;;;0.82;;
11287;SDS011;5700;50.996;7.044;2024-03-23T15:03:33;2.22;;;1.10;;
11287;SDS011;5700;50.996;7.044;2024-03-23T15:06:35;2.65;;;1.17;;
11287;SDS011;5700;50.996;7.044;2024-03-23T15:09:36;2.25;;;0.93;;
11287;SDS011;5700;50.996;7.044;2024-03-23T15:12:37;3.65;;;1.35;;
11287;SDS011;5700;50.996;7.044;2024-03-23T15:15:38;8.85;;;3.72;;
11287;SDS011;5700;50.996;7.044;2024-03-23T15:18:41;2.20;;;0.90;;
11287;SDS011;5700;50.996;7.044;2024-03-23T15:21:43;1.50;;;0.82;;
11287;SDS011;5700;50.996;7.044;2024-03-23T15:24:48;2.60;;;1.00;;
11287;SDS011;5700;50.996;7.044;2024-03-23T15:27:51;1.88;;;1.10;;
11287;SDS011;5700;50.996;7.044;2024-03-23T15:30:53;3.05;;;1.00;;
11287;SDS011;5700;50.996;7.044;2024-03-23T15:34:00;1.60;;;0.93;;
11287;SDS011;5700;50.996;7.044;2024-03-23T15:37:00;1.67;;;0.90;;
11287;SDS011;5700;50.996;7.044;2024-03-23T15:40:02;4.95;;;0.90;;
11287;SDS011;5700;50.996;7.044;2024-03-23T15:43:02;4.13;;;1.60;;
11287;SDS011;5700;50.996;7.044;2024-03-23T15:46:07;5.30;;;1.48;;
11287;SDS011;5700;50.996;7.044;2024-03-23T15:49:09;3.03;;;1.10;;
11287;SDS011;5700;50.996;7.044;2024-03-23T15:52:10;2.58;;;1.05;;
11287;SDS011;5700;50.996;7.044;2024-03-23T15:55:11;4.38;;;2.25;;
11287;SDS011;5700;50.996;7.044;2024-03-23T15:58:12;2.97;;;1.60;;
11287;SDS011;5700;50.996;7.044;2024-03-23T16:01:12;2.58;;;0.93;;
11287;SDS011;5700;50.996;7.044;2024-03-23T16:04:16;3.13;;;1.10;;
11287;SDS011;5700;50.996;7.044;2024-03-23T16:07:16;3.92;;;1.40;;
11287;SDS011;5700;50.996;7.044;2024-03-23T16:10:18;2.47;;;1.00;;
11287;SDS011;5700;50.996;7.044;2024-03-23T16:13:18;2.85;;;1.30;;
11287;SDS011;5700;50.996;7.044;2024-03-23T16:16:20;1.95;;;1.23;;
11287;SDS011;5700;50.996;7.044;2024-03-23T16:19:23;3.95;;;1.40;;
11287;SDS011;5700;50.996;7.044;2024-03-23T16:22:25;4.85;;;2.15;;
11287;SDS011;5700;50.996;7.044;2024-03-23T16:25:26;9.90;;;3.05;;
11287;SDS011;5700;50.996;7.044;2024-03-23T16:28:28;5.38;;;2.42;;
11287;SDS011;5700;50.996;7.044;2024-03-23T16:31:30;7.13;;;3.33;;
11287;SDS011;5700;50.996;7.044;2024-03-23T16:34:32;5.90;;;2.40;;
11287;SDS011;5700;50.996;7.044;2024-03-23T16:37:33;3.95;;;1.08;;
11287;SDS011;5700;50.996;7.044;2024-03-23T16:40:34;1.92;;;1.00;;
11287;SDS011;5700;50.996;7.044;2024-03-23T16:43:35;3.08;;;0.90;;
11287;SDS011;5700;50.996;7.044;2024-03-23T16:46:39;1.30;;;0.73;;
11287;SDS011;5700;50.996;7.044;2024-03-23T16:49:43;2.05;;;1.00;;
11287;SDS011;5700;50.996;7.044;2024-03-23T16:52:44;1.65;;;1.10;;
11287;SDS011;5700;50.996;7.044;2024-03-23T16:55:45;1.98;;;1.00;;
11287;SDS011;5700;50.996;7.044;2024-03-23T16:58:46;1.23;;;0.88;;
11287;SDS011;5700;50.996;7.044;2024-03-23T17:01:48;2.88;;;0.75;;
11287;SDS011;5700;50.996;7.044;2024-03-23T17:04:51;4.55;;;0.98;;
11287;SDS011;5700;50.996;7.044;2024-03-23T17:07:52;1.40;;;0.70;;
11287;SDS011;5700;50.996;7.044;2024-03-23T17:10:57;2.47;;;0.75;;
11287;SDS011;5700;50.996;7.044;2024-03-23T17:13:58;3.45;;;1.00;;
11287;SDS011;5700;50.996;7.044;2024-03-23T17:16:59;0.88;;;0.70;;
11287;SDS011;5700;50.996;7.044;2024-03-23T17:20:01;3.88;;;1.20;;
11287;SDS011;5700;50.996;7.044;2024-03-23T17:23:04;4.43;;;0.95;;
11287;SDS011;5700;50.996;7.044;2024-03-23T17:26:06;5.10;;;2.00;;
11287;SDS011;5700;50.996;7.044;2024-03-23T17:29:06;4.35;;;1.38;;
11287;SDS011;5700;50.996;7.044;2024-03-23T17:32:07;2.58;;;1.40;;
11287;SDS011;5700;50.996;7.044;2024-03-23T17:35:10;5.10;;;2.03;;
11287;SDS011;5700;50.996;7.044;2024-03-23T17:38:11;4.88;;;3.00;;
11287;SDS011;5700;50.996;7.044;2024-03-23T17:41:13;4.25;;;2.53;;
11287;SDS011;5700;50.996;7.044;2024-03-23T17:44:13;7.13;;;1.98;;
11287;SDS011;5700;50.996;7.044;2024-03-23T17:47:15;5.05;;;2.80;;
11287;SDS011;5700;50.996;7.044;2024-03-23T17:50:18;3.35;;;1.80;;
11287;SDS011;5700;50.996;7.044;2024-03-23T17:53:20;2.70;;;1.48;;
11287;SDS011;5700;50.996;7.044;2024-03-23T17:56:21;4.80;;;2.40;;
11287;SDS011;5700;50.996;7.044;2024-03-23T17:59:22;3.90;;;1.67;;
11287;SDS011;5700;50.996;7.044;2024-03-23T18:02:23;3.50;;;1.83;;
11287;SDS011;5700;50.996;7.044;2024-03-23T18:05:26;9.38;;;3.40;;
11287;SDS011;5700;50.996;7.044;2024-03-23T18:08:26;4.43;;;2.03;;
11287;SDS011;5700;50.996;7.044;2024-03-23T18:11:28;4.65;;;2.10;;
11287;SDS011;5700;50.996;7.044;2024-03-23T18:14:28;4.78;;;2.60;;
11287;SDS011;5700;50.996;7.044;2024-03-23T18:17:30;5.85;;;2.53;;
11287;SDS011;5700;50.996;7.044;2024-03-23T18:20:31;5.88;;;2.75;;
11287;SDS011;5700;50.996;7.044;2024-03-23T18:23:33;6.85;;;3.40;;
11287;SDS011;5700;50.996;7.044;2024-03-23T18:26:33;5.57;;;3.25;;
11287;SDS011;5700;50.996;7.044;2024-03-23T18:29:35;5.63;;;2.70;;
11287;SDS011;5700;50.996;7.044;2024-03-23T18:32:36;8.10;;;4.70;;
11287;SDS011;5700;50.996;7.044;2024-03-23T18:35:38;7.22;;;3.80;;
11287;SDS011;5700;50.996;7.044;2024-03-23T18:38:40;6.53;;;4.35;;
11287;SDS011;5700;50.996;7.044;2024-03-23T18:41:40;5.03;;;2.47;;
11287;SDS011;5700;50.996;7.044;2024-03-23T18:44:42;5.95;;;1.98;;
11287;SDS011;5700;50.996;7.044;2024-03-23T18:47:42;4.90;;;2.60;;
11287;SDS011;5700;50.996;7.044;2024-03-23T18:50:45;5.80;;;2.72;;
11287;SDS011;5700;50.996;7.044;2024-03-23T18:53:47;14.13;;;6.43;;
11287;SDS011;5700;50.996;7.044;2024-03-23T18:56:47;7.25;;;2.67;;
11287;SDS011;5700;50.996;7.044;2024-03-23T18:59:49;31.98;;;14.45;;
11287;SDS011;5700;50.996;7.044;2024-03-23T19:02:51;13.25;;;4.85;;
11287;SDS011;5700;50.996;7.044;2024-03-23T19:05:53;12.75;;;4.15;;
11287;SDS011;5700;50.996;7.044;2024-03-23T19:08:54;12.07;;;5.30;;
11287;SDS011;5700;50.996;7.044;2024-03-23T19:11:56;6.90;;;3.10;;
11287;SDS011;5700;50.996;7.044;2024-03-23T19:14:57;4.68;;;1.80;;
11287;SDS011;5700;50.996;7.044;2024-03-23T19:17:58;3.42;;;1.75;;
11287;SDS011;5700;50.996;7.044;2024-03-23T19:21:01;5.57;;;1.90;;
11287;SDS011;5700;50.996;7.044;2024-03-23T19:24:04;2.78;;;1.75;;